Airfield :
LOGIN :

Register | Disclaimer

   EN    FR    IT 

 










Legend :    VFR   Marginal VFR   IFR   Intensive IFR   Very Intensive IFR
Visi :
Ceiling :
>= 8 km
>= 3000ft
5 to 8 km
1000 to 3000 ft
1500m to 5 km
500 to 1000 ft
800 to 1500m
200 to 500 ft
< 800m
< 200 ft
Symbols :   Thunderstorms  Fog  Heavy snow  Heavy precipitations  Wind > 20 kt
SIGMETs :     Misc.  Thunderstorms  Icing  Turbulence  Mountain Waves  Volcanic Ashes







- Airport Elevation : 458 ft
- Download approach charts


LFSI - St-Dizier

CURRENT METAR :
  • 191000Z AUTO 25003KT 220V300 9999 BKN010 OVC016 14/12 Q1006

EXPIRED METARs :
  • 190930Z AUTO 28004KT 240V320 9999 BKN012 OVC018 15/11 Q1006
  • 190900Z AUTO 26005KT 230V300 9999 BKN010 OVC014 14/11 Q1006
  • 190830Z AUTO 28005KT 240V300 9999 BKN007 OVC014 14/12 Q1006
  • 190800Z AUTO 26004KT 240V300 9999 BKN007 OVC012 14/12 Q1006
  • 190730Z AUTO 26004KT 220V290 9999 BKN007 OVC011 13/11 Q1006

TAF TAF LFSI
Valid from the 19 at 09:00 until the 20 at 09:00 UTC


190800Z 1909/2009 26005KT 8000 BKN010
TEMPO 1909/1911 4000 SHRA BKN006 BKN014TCU
BECMG 1911/1913 BKN015
TEMPO 1913/1920 4000 SHRA BKN015TCU
BECMG 1921/1923 OVC008
TEMPO 2001/2009 2000 BR OVC003
No reported NOTAMs for that airfield.



MET'MAP, your aeronautical weather chart ! - Copyright ORBIFLY December 2007 - Disclaimer

ORBIFLY MET'MAP TEAM :

Programming & Development : Alexandra Zaïnal
Concept & Development : Baudouin d'Aumeries
Co-Development & Prog : Marc-Olivier Méhu
Technical & hardware support : Manuel Goepfert

Contact : metmap@orbifly.com




SOURCES & CREDITS :

   NOAA